sensor_id;sensor_type;location;lat;lon;timestamp;pressure;altitude;pressure_sealevel;temperature;humidity
58092;BME280;43896;48.178;11.578;2022-11-23T00:00:24;94632.16;;;7.33;69.49
58092;BME280;43896;48.178;11.578;2022-11-23T00:02:56;94632.66;;;7.28;70.38
58092;BME280;43896;48.178;11.578;2022-11-23T00:05:25;94628.13;;;7.22;71.30
58092;BME280;43896;48.178;11.578;2022-11-23T00:07:51;94626.63;;;7.20;71.05
58092;BME280;43896;48.178;11.578;2022-11-23T00:10:16;94640.19;;;7.23;73.24
58092;BME280;43896;48.178;11.578;2022-11-23T00:12:42;94626.31;;;7.14;71.37
58092;BME280;43896;48.178;11.578;2022-11-23T00:15:08;94641.03;;;7.16;72.43
58092;BME280;43896;48.178;11.578;2022-11-23T00:17:34;94633.84;;;7.18;72.22
58092;BME280;43896;48.178;11.578;2022-11-23T00:19:59;94618.81;;;7.11;72.17
58092;BME280;43896;48.178;11.578;2022-11-23T00:22:24;94626.47;;;7.13;71.42
58092;BME280;43896;48.178;11.578;2022-11-23T00:24:50;94634.47;;;7.28;71.33
58092;BME280;43896;48.178;11.578;2022-11-23T00:27:15;94638.41;;;7.24;71.66
58092;BME280;43896;48.178;11.578;2022-11-23T00:29:40;94626.81;;;7.10;72.37
58092;BME280;43896;48.178;11.578;2022-11-23T00:32:06;94621.78;;;7.00;74.03
58092;BME280;43896;48.178;11.578;2022-11-23T00:34:31;94616.72;;;6.90;74.20
58092;BME280;43896;48.178;11.578;2022-11-23T00:36:56;94638.09;;;7.02;74.04
58092;BME280;43896;48.178;11.578;2022-11-23T00:39:22;94613.13;;;6.83;73.98
58092;BME280;43896;48.178;11.578;2022-11-23T00:41:47;94623.13;;;6.80;74.56
58092;BME280;43896;48.178;11.578;2022-11-23T00:44:12;94635.34;;;6.87;75.29
58092;BME280;43896;48.178;11.578;2022-11-23T00:46:37;94606.78;;;6.69;74.41
58092;BME280;43896;48.178;11.578;2022-11-23T00:49:03;94639.13;;;6.76;74.97
58092;BME280;43896;48.178;11.578;2022-11-23T00:51:30;94622.78;;;6.74;75.25
58092;BME280;43896;48.178;11.578;2022-11-23T00:53:57;94634.53;;;6.87;74.81
58092;BME280;43896;48.178;11.578;2022-11-23T00:56:24;94633.56;;;6.88;73.66
58092;BME280;43896;48.178;11.578;2022-11-23T00:58:51;94601.22;;;6.81;73.88
58092;BME280;43896;48.178;11.578;2022-11-23T01:01:18;94612.66;;;6.88;73.56
58092;BME280;43896;48.178;11.578;2022-11-23T01:03:49;94605.63;;;6.80;73.82
58092;BME280;43896;48.178;11.578;2022-11-23T01:06:18;94623.44;;;6.85;73.41
58092;BME280;43896;48.178;11.578;2022-11-23T01:08:48;94616.44;;;6.69;74.86
58092;BME280;43896;48.178;11.578;2022-11-23T01:11:14;94602.22;;;6.55;74.80
58092;BME280;43896;48.178;11.578;2022-11-23T01:13:40;94634.69;;;6.85;75.09
58092;BME280;43896;48.178;11.578;2022-11-23T01:16:13;94619.53;;;6.72;74.94
58092;BME280;43896;48.178;11.578;2022-11-23T01:18:39;94635.53;;;6.78;75.18
58092;BME280;43896;48.178;11.578;2022-11-23T01:21:05;94617.56;;;6.66;74.44
58092;BME280;43896;48.178;11.578;2022-11-23T01:23:30;94620.16;;;6.66;74.85
58092;BME280;43896;48.178;11.578;2022-11-23T01:25:55;94643.34;;;6.86;74.03
58092;BME280;43896;48.178;11.578;2022-11-23T01:28:21;94621.16;;;6.73;74.30
58092;BME280;43896;48.178;11.578;2022-11-23T01:30:46;94633.41;;;6.81;73.50
58092;BME280;43896;48.178;11.578;2022-11-23T01:33:11;94627.19;;;6.82;72.80
58092;BME280;43896;48.178;11.578;2022-11-23T01:35:37;94636.13;;;6.96;73.35
58092;BME280;43896;48.178;11.578;2022-11-23T01:38:03;94645.31;;;7.00;72.67
58092;BME280;43896;48.178;11.578;2022-11-23T01:40:29;94645.78;;;7.04;72.38
58092;BME280;43896;48.178;11.578;2022-11-23T01:42:57;94652.16;;;7.01;72.21
58092;BME280;43896;48.178;11.578;2022-11-23T01:45:36;94646.28;;;6.99;72.66
58092;BME280;43896;48.178;11.578;2022-11-23T01:48:05;94653.94;;;7.01;71.48
58092;BME280;43896;48.178;11.578;2022-11-23T01:50:32;94658.69;;;7.05;72.23
58092;BME280;43896;48.178;11.578;2022-11-23T01:52:57;94658.19;;;7.10;71.97
58092;BME280;43896;48.178;11.578;2022-11-23T01:55:23;94631.28;;;6.93;72.08
58092;BME280;43896;48.178;11.578;2022-11-23T01:57:50;94643.00;;;6.97;72.07
58092;BME280;43896;48.178;11.578;2022-11-23T02:00:16;94644.97;;;6.95;72.36
58092;BME280;43896;48.178;11.578;2022-11-23T02:02:46;94663.28;;;7.03;72.17
58092;BME280;43896;48.178;11.578;2022-11-23T02:05:16;94648.88;;;6.99;72.15
58092;BME280;43896;48.178;11.578;2022-11-23T02:07:42;94659.66;;;7.04;71.65
58092;BME280;43896;48.178;11.578;2022-11-23T02:10:08;94664.91;;;7.04;71.53
58092;BME280;43896;48.178;11.578;2022-11-23T02:12:33;94642.69;;;6.84;72.05
58092;BME280;43896;48.178;11.578;2022-11-23T02:14:59;94662.28;;;7.04;71.84
58092;BME280;43896;48.178;11.578;2022-11-23T02:17:24;94661.00;;;7.00;71.63
58092;BME280;43896;48.178;11.578;2022-11-23T02:20:07;94672.41;;;7.07;71.52
58092;BME280;43896;48.178;11.578;2022-11-23T02:22:50;94667.81;;;7.09;71.79
58092;BME280;43896;48.178;11.578;2022-11-23T02:28:07;94651.19;;;6.86;72.02
58092;BME280;43896;48.178;11.578;2022-11-23T02:30:35;94642.38;;;6.79;71.78
58092;BME280;43896;48.178;11.578;2022-11-23T02:33:03;94650.53;;;6.84;72.09
58092;BME280;43896;48.178;11.578;2022-11-23T02:35:30;94661.81;;;6.84;72.11
58092;BME280;43896;48.178;11.578;2022-11-23T02:37:55;94626.38;;;6.65;71.29
58092;BME280;43896;48.178;11.578;2022-11-23T02:40:32;94647.44;;;6.80;71.13
58092;BME280;43896;48.178;11.578;2022-11-23T02:42:58;94646.63;;;6.71;71.32
58092;BME280;43896;48.178;11.578;2022-11-23T02:45:30;94660.66;;;6.79;71.18
58092;BME280;43896;48.178;11.578;2022-11-23T02:47:58;94655.44;;;6.79;71.49
58092;BME280;43896;48.178;11.578;2022-11-23T02:50:24;94659.38;;;6.83;71.83
58092;BME280;43896;48.178;11.578;2022-11-23T02:52:49;94658.88;;;6.79;71.06
58092;BME280;43896;48.178;11.578;2022-11-23T02:55:14;94640.25;;;6.66;71.10
58092;BME280;43896;48.178;11.578;2022-11-23T02:57:40;94652.97;;;6.77;71.09
58092;BME280;43896;48.178;11.578;2022-11-23T03:00:06;94660.50;;;6.72;71.95
58092;BME280;43896;48.178;11.578;2022-11-23T03:02:31;94647.91;;;6.51;71.95
58092;BME280;43896;48.178;11.578;2022-11-23T03:04:56;94644.31;;;6.35;72.31
58092;BME280;43896;48.178;11.578;2022-11-23T03:07:22;94637.16;;;6.29;71.90
58092;BME280;43896;48.178;11.578;2022-11-23T03:09:47;94659.81;;;6.37;72.50
58092;BME280;43896;48.178;11.578;2022-11-23T03:12:12;94658.53;;;6.33;72.66
58092;BME280;43896;48.178;11.578;2022-11-23T03:14:37;94659.81;;;6.29;72.63
58092;BME280;43896;48.178;11.578;2022-11-23T03:17:03;94670.44;;;6.35;72.44
58092;BME280;43896;48.178;11.578;2022-11-23T03:19:29;94672.06;;;6.36;72.69
58092;BME280;43896;48.178;11.578;2022-11-23T03:21:54;94668.78;;;6.26;72.40
58092;BME280;43896;48.178;11.578;2022-11-23T03:24:19;94665.19;;;6.19;72.86
58092;BME280;43896;48.178;11.578;2022-11-23T03:26:45;94663.22;;;6.21;72.35
58092;BME280;43896;48.178;11.578;2022-11-23T03:29:10;94661.94;;;6.25;72.00
58092;BME280;43896;48.178;11.578;2022-11-23T03:31:35;94665.03;;;6.29;71.47
58092;BME280;43896;48.178;11.578;2022-11-23T03:34:01;94664.72;;;6.40;71.28
58092;BME280;43896;48.178;11.578;2022-11-23T03:36:26;94665.22;;;6.44;70.73
58092;BME280;43896;48.178;11.578;2022-11-23T03:38:51;94654.44;;;6.38;71.04
58092;BME280;43896;48.178;11.578;2022-11-23T03:41:16;94647.56;;;6.37;71.29
58092;BME280;43896;48.178;11.578;2022-11-23T03:43:42;94660.00;;;6.44;71.12
58092;BME280;43896;48.178;11.578;2022-11-23T03:46:07;94660.31;;;6.41;71.54
58092;BME280;43896;48.178;11.578;2022-11-23T03:48:32;94654.44;;;6.30;72.19
58092;BME280;43896;48.178;11.578;2022-11-23T03:50:58;94649.00;;;6.15;72.27
58092;BME280;43896;48.178;11.578;2022-11-23T03:53:23;94656.03;;;6.15;72.38
58092;BME280;43896;48.178;11.578;2022-11-23T03:55:48;94638.72;;;6.06;72.19
58092;BME280;43896;48.178;11.578;2022-11-23T03:58:13;94633.44;;;5.89;72.97
58092;BME280;43896;48.178;11.578;2022-11-23T04:00:39;94661.88;;;6.00;72.92
58092;BME280;43896;48.178;11.578;2022-11-23T04:03:04;94635.38;;;5.87;73.11
58092;BME280;43896;48.178;11.578;2022-11-23T04:05:29;94651.91;;;5.96;72.82
58092;BME280;43896;48.178;11.578;2022-11-23T04:07:55;94654.16;;;5.91;72.97
58092;BME280;43896;48.178;11.578;2022-11-23T04:10:20;94644.81;;;5.80;73.14
58092;BME280;43896;48.178;11.578;2022-11-23T04:12:50;94634.31;;;5.63;73.54
58092;BME280;43896;48.178;11.578;2022-11-23T04:15:16;94648.53;;;5.69;72.96
58092;BME280;43896;48.178;11.578;2022-11-23T04:17:41;94636.28;;;5.61;73.26
58092;BME280;43896;48.178;11.578;2022-11-23T04:20:06;94624.81;;;5.46;73.12
58092;BME280;43896;48.178;11.578;2022-11-23T04:22:32;94660.56;;;5.62;73.36
58092;BME280;43896;48.178;11.578;2022-11-23T04:24:57;94641.78;;;5.58;73.31
58092;BME280;43896;48.178;11.578;2022-11-23T04:27:23;94628.41;;;5.53;73.92
58092;BME280;43896;48.178;11.578;2022-11-23T04:29:48;94646.81;;;5.52;73.85
58092;BME280;43896;48.178;11.578;2022-11-23T04:32:13;94633.97;;;5.50;73.82
58092;BME280;43896;48.178;11.578;2022-11-23T04:34:38;94626.25;;;5.40;74.07
58092;BME280;43896;48.178;11.578;2022-11-23T04:37:04;94639.34;;;5.57;73.80
58092;BME280;43896;48.178;11.578;2022-11-23T04:39:29;94646.72;;;5.61;73.83
58092;BME280;43896;48.178;11.578;2022-11-23T04:41:54;94651.16;;;5.69;73.83
58092;BME280;43896;48.178;11.578;2022-11-23T04:44:20;94631.16;;;5.52;73.95
58092;BME280;43896;48.178;11.578;2022-11-23T04:46:46;94649.16;;;5.63;73.73
58092;BME280;43896;48.178;11.578;2022-11-23T04:49:11;94653.38;;;5.56;74.50
58092;BME280;43896;48.178;11.578;2022-11-23T04:51:37;94644.41;;;5.50;74.57
58092;BME280;43896;48.178;11.578;2022-11-23T04:54:02;94574.72;;;5.00;74.96
58092;BME280;43896;48.178;11.578;2022-11-23T04:56:27;94631.63;;;5.39;74.90
58092;BME280;43896;48.178;11.578;2022-11-23T04:58:52;94643.06;;;5.46;74.43
58092;BME280;43896;48.178;11.578;2022-11-23T05:01:18;94648.31;;;5.54;74.80
58092;BME280;43896;48.178;11.578;2022-11-23T05:03:43;94620.56;;;5.45;74.29
58092;BME280;43896;48.178;11.578;2022-11-23T05:06:09;94649.97;;;5.63;74.80
58092;BME280;43896;48.178;11.578;2022-11-23T05:08:34;94634.97;;;5.57;74.89
58092;BME280;43896;48.178;11.578;2022-11-23T05:10:59;94639.53;;;5.63;74.61
58092;BME280;43896;48.178;11.578;2022-11-23T05:13:25;94643.63;;;5.66;75.05
58092;BME280;43896;48.178;11.578;2022-11-23T05:15:50;94642.34;;;5.70;75.06
58092;BME280;43896;48.178;11.578;2022-11-23T05:18:15;94619.66;;;5.62;75.22
58092;BME280;43896;48.178;11.578;2022-11-23T05:20:41;94645.47;;;5.82;75.48
58092;BME280;43896;48.178;11.578;2022-11-23T05:23:06;94631.63;;;5.81;75.62
58092;BME280;43896;48.178;11.578;2022-11-23T05:25:32;94623.13;;;5.71;75.56
58092;BME280;43896;48.178;11.578;2022-11-23T05:27:58;94618.66;;;5.63;75.68
58092;BME280;43896;48.178;11.578;2022-11-23T05:30:23;94640.06;;;5.75;75.72
58092;BME280;43896;48.178;11.578;2022-11-23T05:32:49;94571.16;;;5.35;75.35
58092;BME280;43896;48.178;11.578;2022-11-23T05:35:14;94641.88;;;5.75;75.77
58092;BME280;43896;48.178;11.578;2022-11-23T05:37:40;94629.44;;;5.69;76.32
58092;BME280;43896;48.178;11.578;2022-11-23T05:40:06;94624.72;;;5.64;75.98
58092;BME280;43896;48.178;11.578;2022-11-23T05:42:32;94630.28;;;5.77;75.92
58092;BME280;43896;48.178;11.578;2022-11-23T05:44:57;94604.44;;;5.50;75.50
58092;BME280;43896;48.178;11.578;2022-11-23T05:47:22;94633.38;;;5.73;75.94
58092;BME280;43896;48.178;11.578;2022-11-23T05:49:48;94601.06;;;5.57;76.25
58092;BME280;43896;48.178;11.578;2022-11-23T05:52:14;94626.56;;;5.80;75.69
58092;BME280;43896;48.178;11.578;2022-11-23T05:54:39;94626.91;;;5.85;75.65
58092;BME280;43896;48.178;11.578;2022-11-23T05:57:05;94619.38;;;5.82;76.03
58092;BME280;43896;48.178;11.578;2022-11-23T05:59:30;94632.31;;;5.92;76.45
58092;BME280;43896;48.178;11.578;2022-11-23T06:01:56;94642.56;;;5.85;76.15
58092;BME280;43896;48.178;11.578;2022-11-23T06:04:21;94608.59;;;5.77;76.43
58092;BME280;43896;48.178;11.578;2022-11-23T06:06:47;94623.00;;;5.89;75.53
58092;BME280;43896;48.178;11.578;2022-11-23T06:09:12;94634.91;;;5.92;75.80
58092;BME280;43896;48.178;11.578;2022-11-23T06:11:37;94612.56;;;5.89;75.37
58092;BME280;43896;48.178;11.578;2022-11-23T06:14:03;94620.13;;;6.00;74.68
58092;BME280;43896;48.178;11.578;2022-11-23T06:16:28;94628.28;;;6.06;74.76
58092;BME280;43896;48.178;11.578;2022-11-23T06:18:53;94606.06;;;5.93;75.21
58092;BME280;43896;48.178;11.578;2022-11-23T06:21:18;94608.16;;;5.90;75.56
58092;BME280;43896;48.178;11.578;2022-11-23T06:23:46;94632.03;;;6.03;75.70
58092;BME280;43896;48.178;11.578;2022-11-23T06:26:11;94625.66;;;5.97;75.97
58092;BME280;43896;48.178;11.578;2022-11-23T06:28:36;94602.13;;;5.89;75.91
58092;BME280;43896;48.178;11.578;2022-11-23T06:31:04;94623.84;;;5.98;76.13
58092;BME280;43896;48.178;11.578;2022-11-23T06:33:30;94633.00;;;6.02;76.49
58092;BME280;43896;48.178;11.578;2022-11-23T06:35:57;94635.47;;;6.04;76.37
58092;BME280;43896;48.178;11.578;2022-11-23T06:38:23;94627.47;;;6.05;76.11
58092;BME280;43896;48.178;11.578;2022-11-23T06:40:49;94629.63;;;6.18;75.00
58092;BME280;43896;48.178;11.578;2022-11-23T06:43:14;94626.03;;;6.19;74.97
58092;BME280;43896;48.178;11.578;2022-11-23T06:45:40;94617.38;;;6.18;74.96
58092;BME280;43896;48.178;11.578;2022-11-23T06:48:05;94645.13;;;6.36;74.68
58092;BME280;43896;48.178;11.578;2022-11-23T06:50:30;94619.19;;;6.26;74.68
58092;BME280;43896;48.178;11.578;2022-11-23T06:52:56;94640.91;;;6.43;74.06
58092;BME280;43896;48.178;11.578;2022-11-23T06:55:23;94625.06;;;6.36;73.35
58092;BME280;43896;48.178;11.578;2022-11-23T06:57:48;94641.25;;;6.48;73.20
58092;BME280;43896;48.178;11.578;2022-11-23T07:00:14;94638.31;;;6.43;72.78
58092;BME280;43896;48.178;11.578;2022-11-23T07:02:39;94647.75;;;6.44;73.30
58092;BME280;43896;48.178;11.578;2022-11-23T07:05:05;94639.44;;;6.49;72.84
58092;BME280;43896;48.178;11.578;2022-11-23T07:07:30;94660.34;;;6.57;73.05
58092;BME280;43896;48.178;11.578;2022-11-23T07:09:56;94635.69;;;6.43;73.47
58092;BME280;43896;48.178;11.578;2022-11-23T07:12:21;94639.13;;;6.52;72.69
58092;BME280;43896;48.178;11.578;2022-11-23T07:14:46;94653.16;;;6.59;73.01
58092;BME280;43896;48.178;11.578;2022-11-23T07:17:12;94668.50;;;6.70;73.04
58092;BME280;43896;48.178;11.578;2022-11-23T07:19:37;94654.47;;;6.55;73.47
58092;BME280;43896;48.178;11.578;2022-11-23T07:22:02;94652.16;;;6.60;72.93
58092;BME280;43896;48.178;11.578;2022-11-23T07:24:28;94657.56;;;6.50;73.23
58092;BME280;43896;48.178;11.578;2022-11-23T07:26:53;94654.97;;;6.59;73.19
58092;BME280;43896;48.178;11.578;2022-11-23T07:29:18;94665.91;;;6.62;72.48
58092;BME280;43896;48.178;11.578;2022-11-23T07:31:43;94661.16;;;6.66;72.16
58092;BME280;43896;48.178;11.578;2022-11-23T07:34:09;94678.31;;;6.76;70.92
58092;BME280;43896;48.178;11.578;2022-11-23T07:36:35;94669.97;;;6.73;71.03
58092;BME280;43896;48.178;11.578;2022-11-23T07:39:00;94672.59;;;6.73;70.67
58092;BME280;43896;48.178;11.578;2022-11-23T07:41:26;94669.34;;;6.71;70.82
58092;BME280;43896;48.178;11.578;2022-11-23T07:43:52;94691.22;;;6.86;70.20
58092;BME280;43896;48.178;11.578;2022-11-23T07:46:17;94666.06;;;6.77;69.77
58092;BME280;43896;48.178;11.578;2022-11-23T07:48:43;94678.63;;;6.82;70.39
58092;BME280;43896;48.178;11.578;2022-11-23T07:51:08;94690.72;;;6.99;69.99
58092;BME280;43896;48.178;11.578;2022-11-23T07:53:33;94670.63;;;6.75;71.40
58092;BME280;43896;48.178;11.578;2022-11-23T07:56:00;94667.22;;;6.83;70.20
58092;BME280;43896;48.178;11.578;2022-11-23T07:58:26;94708.38;;;7.13;69.75
58092;BME280;43896;48.178;11.578;2022-11-23T08:00:52;94702.81;;;7.08;69.66
58092;BME280;43896;48.178;11.578;2022-11-23T08:03:18;94698.88;;;7.04;69.71
58092;BME280;43896;48.178;11.578;2022-11-23T08:05:43;94684.34;;;6.93;69.89
58092;BME280;43896;48.178;11.578;2022-11-23T08:08:08;94706.56;;;7.14;69.49
58092;BME280;43896;48.178;11.578;2022-11-23T08:10:34;94683.03;;;6.98;69.31
58092;BME280;43896;48.178;11.578;2022-11-23T08:13:01;94710.63;;;7.17;69.35
58092;BME280;43896;48.178;11.578;2022-11-23T08:15:27;94707.53;;;7.21;68.94
58092;BME280;43896;48.178;11.578;2022-11-23T08:17:56;94709.97;;;7.14;69.40
58092;BME280;43896;48.178;11.578;2022-11-23T08:20:22;94713.25;;;7.33;68.17
58092;BME280;43896;48.178;11.578;2022-11-23T08:22:47;94708.00;;;7.41;68.07
58092;BME280;43896;48.178;11.578;2022-11-23T08:25:13;94675.66;;;7.18;67.84
58092;BME280;43896;48.178;11.578;2022-11-23T08:27:38;94693.59;;;7.37;67.24
58092;BME280;43896;48.178;11.578;2022-11-23T08:30:04;94694.28;;;7.39;67.87
58092;BME280;43896;48.178;11.578;2022-11-23T08:32:29;94693.91;;;7.50;68.06
58092;BME280;43896;48.178;11.578;2022-11-23T08:34:54;94691.13;;;7.60;67.48
58092;BME280;43896;48.178;11.578;2022-11-23T08:37:20;94691.22;;;7.75;66.21
58092;BME280;43896;48.178;11.578;2022-11-23T08:39:45;94692.19;;;7.82;65.87
58092;BME280;43896;48.178;11.578;2022-11-23T08:42:10;94707.16;;;8.05;66.34
58092;BME280;43896;48.178;11.578;2022-11-23T08:44:35;94690.81;;;8.03;66.28
58092;BME280;43896;48.178;11.578;2022-11-23T08:47:01;94695.28;;;8.25;66.31
58092;BME280;43896;48.178;11.578;2022-11-23T08:49:26;94652.38;;;7.95;64.18
58092;BME280;43896;48.178;11.578;2022-11-23T08:51:51;94697.88;;;8.25;63.27
58092;BME280;43896;48.178;11.578;2022-11-23T08:54:18;94688.69;;;8.30;63.54
58092;BME280;43896;48.178;11.578;2022-11-23T08:56:44;94706.97;;;8.46;62.80
58092;BME280;43896;48.178;11.578;2022-11-23T08:59:11;94686.72;;;8.32;62.32
58092;BME280;43896;48.178;11.578;2022-11-23T09:01:42;94701.91;;;8.36;62.75
58092;BME280;43896;48.178;11.578;2022-11-23T09:04:07;94701.00;;;8.21;64.26
58092;BME280;43896;48.178;11.578;2022-11-23T09:06:33;94694.97;;;8.20;63.35
58092;BME280;43896;48.178;11.578;2022-11-23T09:08:58;94685.56;;;8.34;62.26
58092;BME280;43896;48.178;11.578;2022-11-23T09:11:24;94686.38;;;8.35;62.77
58092;BME280;43896;48.178;11.578;2022-11-23T09:13:50;94689.19;;;8.25;61.99
58092;BME280;43896;48.178;11.578;2022-11-23T09:16:16;94700.75;;;8.39;63.43
58092;BME280;43896;48.178;11.578;2022-11-23T09:18:41;94687.00;;;8.37;62.81
58092;BME280;43896;48.178;11.578;2022-11-23T09:21:06;94699.59;;;8.50;63.25
58092;BME280;43896;48.178;11.578;2022-11-23T09:23:32;94677.84;;;8.41;62.35
58092;BME280;43896;48.178;11.578;2022-11-23T09:25:58;94705.72;;;8.65;62.14
58092;BME280;43896;48.178;11.578;2022-11-23T09:28:24;94695.06;;;8.67;62.14
58092;BME280;43896;48.178;11.578;2022-11-23T09:30:52;94703.59;;;8.83;61.42
58092;BME280;43896;48.178;11.578;2022-11-23T09:33:17;94701.22;;;8.74;61.29
58092;BME280;43896;48.178;11.578;2022-11-23T09:35:42;94703.09;;;8.65;61.75
58092;BME280;43896;48.178;11.578;2022-11-23T09:38:08;94702.16;;;8.81;61.09
58092;BME280;43896;48.178;11.578;2022-11-23T09:40:37;94682.38;;;9.31;60.09
58092;BME280;43896;48.178;11.578;2022-11-23T09:43:27;94698.44;;;9.81;59.11
58092;BME280;43896;48.178;11.578;2022-11-23T09:46:00;94665.69;;;10.28;57.31
58092;BME280;43896;48.178;11.578;2022-11-23T09:48:45;94680.41;;;10.81;55.80
58092;BME280;43896;48.178;11.578;2022-11-23T09:51:19;94682.00;;;11.25;53.45
58092;BME280;43896;48.178;11.578;2022-11-23T09:53:57;94667.59;;;11.49;52.09
58092;BME280;43896;48.178;11.578;2022-11-23T09:56:32;94682.09;;;11.67;53.00
58092;BME280;43896;48.178;11.578;2022-11-23T09:59:01;94665.88;;;11.63;53.56
58092;BME280;43896;48.178;11.578;2022-11-23T10:01:28;94672.13;;;11.62;53.54
58092;BME280;43896;48.178;11.578;2022-11-23T10:03:55;94662.06;;;11.66;51.03
58092;BME280;43896;48.178;11.578;2022-11-23T10:06:25;94683.44;;;11.56;51.87
58092;BME280;43896;48.178;11.578;2022-11-23T10:11:30;94680.84;;;11.06;52.58
58092;BME280;43896;48.178;11.578;2022-11-23T10:14:11;94664.38;;;11.25;50.60
58092;BME280;43896;48.178;11.578;2022-11-23T10:17:00;94669.66;;;11.25;50.76
58092;BME280;43896;48.178;11.578;2022-11-23T10:22:11;94667.09;;;11.60;49.07
58092;BME280;43896;48.178;11.578;2022-11-23T10:24:45;94666.47;;;11.65;48.28
58092;BME280;43896;48.178;11.578;2022-11-23T10:27:19;94654.56;;;11.69;49.10
58092;BME280;43896;48.178;11.578;2022-11-23T10:29:45;94659.69;;;11.84;48.61
58092;BME280;43896;48.178;11.578;2022-11-23T10:32:31;94647.66;;;11.68;48.79
58092;BME280;43896;48.178;11.578;2022-11-23T10:35:11;94658.00;;;11.70;49.05
58092;BME280;43896;48.178;11.578;2022-11-23T10:37:38;94654.16;;;11.37;50.33
58092;BME280;43896;48.178;11.578;2022-11-23T10:40:25;94651.00;;;12.32;47.45
58092;BME280;43896;48.178;11.578;2022-11-23T10:43:00;94631.22;;;11.59;49.32
58092;BME280;43896;48.178;11.578;2022-11-23T10:45:28;94651.75;;;11.42;50.30
58092;BME280;43896;48.178;11.578;2022-11-23T10:47:54;94645.31;;;11.17;50.74
58092;BME280;43896;48.178;11.578;2022-11-23T10:52:56;94649.13;;;11.71;49.03
58092;BME280;43896;48.178;11.578;2022-11-23T10:55:26;94645.84;;;12.04;48.36
58092;BME280;43896;48.178;11.578;2022-11-23T10:57:53;94634.72;;;12.15;47.50
58092;BME280;43896;48.178;11.578;2022-11-23T11:00:20;94635.59;;;12.35;47.73
58092;BME280;43896;48.178;11.578;2022-11-23T11:02:52;94621.03;;;12.46;46.54
58092;BME280;43896;48.178;11.578;2022-11-23T11:07:58;94629.59;;;12.68;46.04
58092;BME280;43896;48.178;11.578;2022-11-23T11:10:40;94633.38;;;12.39;46.78
58092;BME280;43896;48.178;11.578;2022-11-23T11:13:29;94633.16;;;12.21;47.53
58092;BME280;43896;48.178;11.578;2022-11-23T11:16:03;94621.84;;;12.47;46.37
58092;BME280;43896;48.178;11.578;2022-11-23T11:18:36;94631.38;;;11.23;48.82
58092;BME280;43896;48.178;11.578;2022-11-23T11:23:52;94612.53;;;11.54;48.57
58092;BME280;43896;48.178;11.578;2022-11-23T11:26:23;94639.59;;;10.85;50.81
58092;BME280;43896;48.178;11.578;2022-11-23T11:28:50;94632.97;;;10.46;51.54
58092;BME280;43896;48.178;11.578;2022-11-23T11:31:44;94607.66;;;9.72;52.64
58092;BME280;43896;48.178;11.578;2022-11-23T11:34:30;94598.28;;;9.99;51.96
58092;BME280;43896;48.178;11.578;2022-11-23T11:37:17;94628.56;;;10.17;52.90
58092;BME280;43896;48.178;11.578;2022-11-23T11:39:53;94623.59;;;10.22;52.17
58092;BME280;43896;48.178;11.578;2022-11-23T11:42:29;94611.41;;;9.99;52.60
58092;BME280;43896;48.178;11.578;2022-11-23T11:44:57;94608.03;;;10.05;53.14
58092;BME280;43896;48.178;11.578;2022-11-23T11:47:31;94601.28;;;10.18;52.22
58092;BME280;43896;48.178;11.578;2022-11-23T11:50:00;94594.59;;;10.73;49.82
58092;BME280;43896;48.178;11.578;2022-11-23T11:52:31;94619.31;;;10.79;49.94
58092;BME280;43896;48.178;11.578;2022-11-23T11:55:09;94615.94;;;10.63;51.45
58092;BME280;43896;48.178;11.578;2022-11-23T11:57:45;94614.22;;;10.77;48.64
58092;BME280;43896;48.178;11.578;2022-11-23T12:00:16;94609.66;;;10.43;50.18
58092;BME280;43896;48.178;11.578;2022-11-23T12:02:54;94606.22;;;10.42;49.96
58092;BME280;43896;48.178;11.578;2022-11-23T12:05:29;94601.44;;;10.31;50.77
58092;BME280;43896;48.178;11.578;2022-11-23T12:08:21;94585.91;;;10.51;49.37
58092;BME280;43896;48.178;11.578;2022-11-23T12:10:52;94606.50;;;10.47;49.42
58092;BME280;43896;48.178;11.578;2022-11-23T12:13:26;94577.53;;;10.04;50.18
58092;BME280;43896;48.178;11.578;2022-11-23T12:16:14;94585.16;;;9.84;50.80
58092;BME280;43896;48.178;11.578;2022-11-23T12:27:27;94587.63;;;10.65;48.67
58092;BME280;43896;48.178;11.578;2022-11-23T12:30:21;94580.69;;;10.58;47.59
58092;BME280;43896;48.178;11.578;2022-11-23T12:33:04;94588.72;;;10.78;46.88
58092;BME280;43896;48.178;11.578;2022-11-23T12:41:13;94561.09;;;10.60;46.52
58092;BME280;43896;48.178;11.578;2022-11-23T12:43:55;94564.59;;;10.67;45.03
58092;BME280;43896;48.178;11.578;2022-11-23T12:46:41;94565.84;;;10.28;46.15
58092;BME280;43896;48.178;11.578;2022-11-23T12:49:21;94585.66;;;10.74;46.24
58092;BME280;43896;48.178;11.578;2022-11-23T12:57:33;94559.06;;;11.19;44.86
58092;BME280;43896;48.178;11.578;2022-11-23T13:00:15;94569.53;;;11.40;44.71
58092;BME280;43896;48.178;11.578;2022-11-23T13:14:15;94591.19;;;10.79;46.68
58092;BME280;43896;48.178;11.578;2022-11-23T13:22:05;94581.63;;;11.28;43.72
58092;BME280;43896;48.178;11.578;2022-11-23T13:24:59;94585.19;;;11.20;44.91
58092;BME280;43896;48.178;11.578;2022-11-23T13:40:22;94586.50;;;10.53;46.03
58092;BME280;43896;48.178;11.578;2022-11-23T13:42:50;94588.94;;;10.76;44.49
58092;BME280;43896;48.178;11.578;2022-11-23T13:45:28;94579.13;;;10.63;44.14
58092;BME280;43896;48.178;11.578;2022-11-23T13:50:54;94586.50;;;11.31;43.04
58092;BME280;43896;48.178;11.578;2022-11-23T13:55:49;94554.69;;;11.33;43.42
58092;BME280;43896;48.178;11.578;2022-11-23T14:00:57;94560.38;;;11.01;44.79
58092;BME280;43896;48.178;11.578;2022-11-23T14:06:26;94558.34;;;10.68;46.19
58092;BME280;43896;48.178;11.578;2022-11-23T14:09:32;94557.19;;;10.78;46.02
58092;BME280;43896;48.178;11.578;2022-11-23T14:17:14;94561.34;;;10.65;45.58
58092;BME280;43896;48.178;11.578;2022-11-23T14:20:06;94555.09;;;10.45;49.61
58092;BME280;43896;48.178;11.578;2022-11-23T14:22:52;94564.63;;;10.46;50.63
58092;BME280;43896;48.178;11.578;2022-11-23T14:25:34;94564.81;;;10.44;50.05